Time;durP1;ratioP1;P1;durP2;ratioP2;P2;SDS_P1;SDS_P2;PMS_P1;PMS_P2;Temp;Humidity;BMP_temperature;BMP_pressure;BME280_temperature;BME280_humidity;BME280_pressure;Samples;Min_cycle;Max_cycle;Signal;HPM_P1;HPM_P2
2023/06/12 00:00:52;;;;;;;9.25;6.82;;;19.20;99.90;;;;;;4992417;28;20181;-68
2023/06/12 00:03:20;;;;;;;7.95;7.10;;;19.10;99.90;;;;;;4992667;28;20200;-68
2023/06/12 00:05:46;;;;;;;7.30;6.60;;;19.00;99.90;;;;;;4992604;28;20165;-68
2023/06/12 00:08:13;;;;;;;7.57;6.85;;;18.90;99.90;;;;;;4974959;28;20200;-68
2023/06/12 00:10:43;;;;;;;8.95;8.02;;;18.90;99.90;;;;;;4992163;28;20200;-68
2023/06/12 00:13:09;;;;;;;8.70;7.95;;;18.80;99.90;;;;;;4975034;28;20177;-68
2023/06/12 00:15:35;;;;;;;6.85;6.25;;;18.70;99.90;;;;;;4992443;28;20200;-68
2023/06/12 00:18:02;;;;;;;8.43;7.82;;;18.70;99.90;;;;;;4992591;28;20244;-68
2023/06/12 00:20:27;;;;;;;10.20;9.40;;;18.60;99.90;;;;;;4992021;28;20193;-69
2023/06/12 00:22:53;;;;;;;8.93;8.13;;;18.50;99.90;;;;;;4992241;28;20224;-68
2023/06/12 00:25:21;;;;;;;11.13;10.32;;;18.50;99.90;;;;;;5002744;23;20541;-68
2023/06/12 00:27:46;;;;;;;11.88;10.77;;;18.40;99.90;;;;;;4992150;28;20180;-68
2023/06/12 00:30:13;;;;;;;11.77;10.98;;;18.40;99.90;;;;;;4991845;28;20581;-68
2023/06/12 00:32:38;;;;;;;9.60;8.90;;;18.30;99.90;;;;;;4992068;28;20177;-71
2023/06/12 00:35:04;;;;;;;9.63;8.93;;;18.20;99.90;;;;;;4992043;28;20203;-68
2023/06/12 00:37:30;;;;;;;7.25;6.50;;;18.20;99.90;;;;;;4992114;28;20177;-70
2023/06/12 00:39:56;;;;;;;8.27;7.67;;;18.20;99.90;;;;;;4991779;28;20237;-70
2023/06/12 00:42:21;;;;;;;10.07;7.20;;;18.20;99.90;;;;;;4992136;28;20258;-68
2023/06/12 00:44:47;;;;;;;8.40;7.70;;;18.10;99.90;;;;;;4991824;28;20200;-68
2023/06/12 00:47:14;;;;;;;9.02;8.23;;;18.00;99.90;;;;;;4992061;28;20175;-68
2023/06/12 00:49:40;;;;;;;9.50;7.70;;;18.00;99.90;;;;;;4991570;28;20177;-68
2023/06/12 00:52:11;;;;;;;7.45;6.88;;;18.00;99.90;;;;;;4991812;28;20267;-68
2023/06/12 00:54:38;;;;;;;8.30;7.60;;;17.90;99.90;;;;;;4991807;28;20287;-70
2023/06/12 00:57:07;;;;;;;7.43;6.65;;;17.90;99.90;;;;;;4991217;28;20175;-69
2023/06/12 00:59:33;;;;;;;11.80;8.80;;;17.90;99.90;;;;;;4991627;28;20173;-68
2023/06/12 01:02:00;;;;;;;8.87;7.30;;;17.90;99.90;;;;;;4991721;28;20228;-69
2023/06/12 01:04:28;;;;;;;8.47;7.57;;;17.90;99.90;;;;;;4994026;28;20254;-68
2023/06/12 01:07:20;;;;;;;7.72;7.13;;;17.80;99.90;;;;;;4995739;28;20248;-68
2023/06/12 01:09:59;;;;;;;9.30;8.63;;;17.80;99.90;;;;;;4995698;28;20176;-69
2023/06/12 01:12:25;;;;;;;9.43;8.60;;;17.80;99.90;;;;;;4995633;28;20172;-68
2023/06/12 01:14:50;;;;;;;9.10;8.40;;;17.70;99.90;;;;;;4995586;28;20203;-69
2023/06/12 01:17:17;;;;;;;13.00;10.70;;;17.70;99.90;;;;;;4995763;28;20180;-68
2023/06/12 01:19:42;;;;;;;10.50;9.70;;;17.60;99.90;;;;;;4995284;28;20180;-68
2023/06/12 01:22:12;;;;;;;9.00;8.30;;;17.60;99.90;;;;;;4995522;28;20205;-68
2023/06/12 01:24:38;;;;;;;9.30;8.60;;;17.50;99.90;;;;;;4995190;28;20601;-68
2023/06/12 01:27:54;;;;;;;9.77;8.87;;;17.50;99.90;;;;;;4994394;28;20192;-68
2023/06/12 01:30:35;;;;;;;13.80;12.70;;;17.40;99.90;;;;;;4993460;28;20263;-68
2023/06/12 01:33:03;;;;;;;10.67;9.97;;;17.30;99.90;;;;;;4995531;28;20574;-68
2023/06/12 01:35:32;;;;;;;13.63;12.73;;;17.30;99.90;;;;;;4994053;28;20674;-71
2023/06/12 01:38:13;;;;;;;12.57;11.47;;;17.20;99.90;;;;;;4995286;28;20173;-68
2023/06/12 01:40:39;;;;;;;11.00;10.17;;;17.20;99.90;;;;;;4994883;28;20172;-68
2023/06/12 01:43:05;;;;;;;11.27;10.33;;;17.20;99.90;;;;;;4995208;28;20207;-68
2023/06/12 01:45:32;;;;;;;8.63;7.93;;;17.10;99.90;;;;;;4995127;28;20193;-68
2023/06/12 01:47:58;;;;;;;8.63;6.87;;;17.00;99.90;;;;;;4995221;28;20169;-68
2023/06/12 01:50:24;;;;;;;9.63;8.90;;;16.90;99.90;;;;;;4994697;28;20542;-69
2023/06/12 01:52:50;;;;;;;13.27;12.33;;;16.90;99.90;;;;;;4995196;28;20187;-68
2023/06/12 01:55:19;;;;;;;11.23;10.20;;;16.80;99.90;;;;;;4994993;28;20239;-69
2023/06/12 01:57:44;;;;;;;8.37;7.57;;;16.70;99.90;;;;;;4993990;28;20180;-68
2023/06/12 02:00:11;;;;;;;7.80;7.10;;;16.80;99.90;;;;;;4994613;28;20173;-68
2023/06/12 02:02:39;;;;;;;8.23;7.63;;;16.80;99.90;;;;;;4994816;28;20204;-68
2023/06/12 02:05:05;;;;;;;8.43;7.73;;;16.80;99.90;;;;;;4994916;28;20220;-68
2023/06/12 02:07:31;;;;;;;9.27;8.37;;;16.70;99.90;;;;;;4994809;28;20662;-69
2023/06/12 02:09:56;;;;;;;8.43;7.57;;;16.70;99.90;;;;;;4994606;28;20264;-69
2023/06/12 02:12:22;;;;;;;9.03;8.13;;;16.70;99.90;;;;;;4994550;28;20223;-68
2023/06/12 02:14:47;;;;;;;7.93;7.33;;;16.60;99.90;;;;;;4994261;28;20199;-69
2023/06/12 02:17:14;;;;;;;8.53;7.63;;;16.60;99.90;;;;;;4994698;28;20173;-68
2023/06/12 02:19:39;;;;;;;9.30;8.43;;;16.50;99.90;;;;;;4994204;28;20533;-68
2023/06/12 02:22:05;;;;;;;8.27;7.57;;;16.50;99.90;;;;;;4993156;28;20196;-69
2023/06/12 02:24:32;;;;;;;9.10;8.20;;;16.50;99.90;;;;;;4994213;28;20165;-68
2023/06/12 02:26:57;;;;;;;9.50;8.50;;;16.40;99.90;;;;;;4993030;28;20579;-68
2023/06/12 02:29:23;;;;;;;8.87;8.17;;;16.40;99.90;;;;;;4994153;28;20180;-68
2023/06/12 02:31:48;;;;;;;8.13;7.33;;;16.40;99.90;;;;;;4993083;28;20187;-67
2023/06/12 02:34:14;;;;;;;7.90;7.30;;;16.30;99.90;;;;;;4994194;28;20179;-68
2023/06/12 02:36:41;;;;;;;9.63;8.20;;;16.30;99.90;;;;;;4994325;28;20197;-68
2023/06/12 02:39:08;;;;;;;8.47;7.67;;;16.30;99.90;;;;;;4993980;28;20169;-68
2023/06/12 02:41:35;;;;;;;8.87;8.17;;;16.20;99.90;;;;;;4993995;28;20184;-68
2023/06/12 02:44:01;;;;;;;10.63;7.93;;;16.10;99.90;;;;;;4994057;28;20218;-68
2023/06/12 02:46:27;;;;;;;8.07;7.37;;;16.10;99.90;;;;;;4993950;28;20259;-69
2023/06/12 02:48:52;;;;;;;8.40;7.70;;;16.00;99.90;;;;;;4993919;28;20180;-69
2023/06/12 02:51:18;;;;;;;8.13;7.43;;;16.10;99.90;;;;;;4993754;28;20231;-68
2023/06/12 02:53:43;;;;;;;9.23;8.33;;;16.00;99.90;;;;;;4993840;28;20248;-68
2023/06/12 02:56:09;;;;;;;8.33;7.50;;;15.90;99.90;;;;;;4993577;28;20526;-69
2023/06/12 02:58:34;;;;;;;9.27;8.30;;;15.80;99.90;;;;;;4992946;28;20169;-69
2023/06/12 03:01:02;;;;;;;9.27;8.40;;;15.80;99.90;;;;;;4993440;28;20634;-69
2023/06/12 03:03:29;;;;;;;8.80;8.10;;;15.80;99.90;;;;;;4993710;28;20192;-68
2023/06/12 03:05:54;;;;;;;8.23;7.53;;;15.70;99.90;;;;;;4993554;28;20658;-68
2023/06/12 03:08:20;;;;;;;7.97;7.23;;;15.70;99.90;;;;;;4993554;28;20251;-68
2023/06/12 03:10:45;;;;;;;8.33;7.60;;;15.70;99.90;;;;;;4993218;28;20173;-68
2023/06/12 03:13:14;;;;;;;8.53;7.83;;;15.70;99.90;;;;;;4992397;28;20534;-69
2023/06/12 03:15:40;;;;;;;8.53;7.93;;;15.60;99.90;;;;;;4993219;28;20213;-68
2023/06/12 03:18:05;;;;;;;8.83;7.90;;;15.70;99.90;;;;;;4993457;28;20611;-68
2023/06/12 03:20:34;;;;;;;7.77;7.20;;;15.70;99.90;;;;;;4992940;28;20176;-69
2023/06/12 03:23:00;;;;;;;10.53;8.03;;;15.60;99.90;;;;;;4993233;28;20613;-69
2023/06/12 03:25:26;;;;;;;9.73;8.93;;;15.60;99.90;;;;;;4991817;28;20217;-69
2023/06/12 03:27:52;;;;;;;9.97;9.13;;;15.60;99.90;;;;;;4992434;28;20518;-69
2023/06/12 03:30:18;;;;;;;10.77;9.97;;;15.60;99.90;;;;;;4992871;28;20585;-69
2023/06/12 03:32:44;;;;;;;10.00;9.20;;;15.60;99.90;;;;;;4993153;28;20204;-69
2023/06/12 03:35:09;;;;;;;9.87;9.10;;;15.60;99.90;;;;;;4993039;28;20197;-69
2023/06/12 03:37:35;;;;;;;9.80;8.93;;;15.60;99.90;;;;;;4993042;28;20668;-69
2023/06/12 03:40:01;;;;;;;13.53;12.30;;;15.60;99.90;;;;;;4992695;28;20518;-68
2023/06/12 03:42:26;;;;;;;9.17;8.47;;;15.60;99.90;;;;;;4992753;28;20204;-69
2023/06/12 03:44:52;;;;;;;8.53;7.83;;;15.60;99.90;;;;;;4992705;28;20219;-69
2023/06/12 03:47:18;;;;;;;8.90;8.13;;;15.70;99.90;;;;;;4992453;28;20176;-69
2023/06/12 03:49:46;;;;;;;9.23;8.53;;;15.70;99.90;;;;;;4992570;28;20176;-69
2023/06/12 03:52:11;;;;;;;9.73;8.93;;;15.80;99.90;;;;;;4992893;28;20643;-69
2023/06/12 03:54:38;;;;;;;10.40;9.37;;;15.80;99.90;;;;;;4991488;28;20211;-69
2023/06/12 03:57:04;;;;;;;10.47;9.57;;;15.80;99.90;;;;;;4992270;28;20168;-69
2023/06/12 03:59:29;;;;;;;9.33;8.40;;;15.80;99.90;;;;;;4992523;28;20762;-69
2023/06/12 04:01:58;;;;;;;9.80;9.00;;;15.90;99.90;;;;;;4992529;28;20283;-69
2023/06/12 04:04:24;;;;;;;9.00;8.40;;;15.90;99.90;;;;;;4992591;28;20601;-69
2023/06/12 04:06:50;;;;;;;9.57;8.80;;;15.90;99.90;;;;;;4992544;28;20172;-69
2023/06/12 04:09:16;;;;;;;9.43;8.43;;;16.00;99.90;;;;;;4992373;28;20634;-69
2023/06/12 04:11:43;;;;;;;8.40;7.57;;;16.00;99.90;;;;;;4992422;28;20177;-69
2023/06/12 04:14:09;;;;;;;9.23;8.33;;;16.00;99.90;;;;;;4992551;28;20199;-69
2023/06/12 04:16:35;;;;;;;9.10;8.40;;;16.10;99.90;;;;;;4992363;28;20677;-69
2023/06/12 04:19:03;;;;;;;9.13;8.33;;;16.20;99.90;;;;;;4992326;28;20169;-69
2023/06/12 04:21:29;;;;;;;8.57;7.87;;;16.30;99.90;;;;;;4992117;28;20165;-69
2023/06/12 04:23:55;;;;;;;9.13;8.33;;;16.40;99.90;;;;;;4992168;28;20681;-68
2023/06/12 04:26:20;;;;;;;9.70;8.70;;;16.40;99.90;;;;;;4992002;28;20212;-70
2023/06/12 04:28:46;;;;;;;10.13;9.23;;;16.50;99.90;;;;;;4992205;28;20179;-69
2023/06/12 04:31:15;;;;;;;10.60;9.47;;;16.60;99.90;;;;;;4991921;28;20264;-69
2023/06/12 04:33:41;;;;;;;9.87;8.80;;;16.80;99.90;;;;;;4992119;28;20168;-69
2023/06/12 04:36:07;;;;;;;9.60;8.70;;;16.90;99.90;;;;;;4992016;28;20197;-69
2023/06/12 04:38:36;;;;;;;8.73;8.00;;;17.20;99.90;;;;;;4991944;28;20235;-69
2023/06/12 04:41:02;;;;;;;8.77;8.05;;;17.60;99.90;;;;;;4991801;28;20172;-69
2023/06/12 04:43:29;;;;;;;9.93;9.00;;;18.00;99.90;;;;;;4992087;28;20212;-69
2023/06/12 04:45:55;;;;;;;9.57;8.77;;;18.40;99.90;;;;;;4991941;28;20717;-69
2023/06/12 04:48:21;;;;;;;12.68;11.68;;;18.60;99.90;;;;;;4992144;28;20165;-69
2023/06/12 04:50:47;;;;;;;13.95;13.05;;;18.90;99.90;;;;;;4991588;28;20668;-70
2023/06/12 04:53:17;;;;;;;14.98;13.77;;;19.00;99.90;;;;;;4991934;28;20317;-69
2023/06/12 04:55:44;;;;;;;8.50;7.28;;;19.20;99.90;;;;;;4990502;28;20193;-69
2023/06/12 04:58:10;;;;;;;7.60;7.00;;;19.40;99.90;;;;;;4991943;28;20176;-69
2023/06/12 05:00:36;;;;;;;8.02;7.45;;;19.70;99.90;;;;;;4991587;28;20393;-69
2023/06/12 05:03:02;;;;;;;8.48;7.68;;;20.10;99.90;;;;;;4991762;28;20560;-69
2023/06/12 05:05:29;;;;;;;8.73;7.95;;;20.40;99.90;;;;;;4992064;28;20267;-69
2023/06/12 05:07:54;;;;;;;10.25;9.35;;;20.60;99.90;;;;;;4991642;28;20729;-69
2023/06/12 05:10:20;;;;;;;10.13;8.13;;;20.80;99.90;;;;;;4991483;28;20204;-69
2023/06/12 05:12:46;;;;;;;8.88;7.53;;;21.10;99.90;;;;;;4991927;28;20267;-69
2023/06/12 05:15:11;;;;;;;7.78;7.03;;;21.00;99.90;;;;;;4991985;28;20197;-69
2023/06/12 05:17:37;;;;;;;8.23;7.43;;;21.10;99.90;;;;;;4991979;28;20176;-69
2023/06/12 05:20:08;;;;;;;8.57;7.78;;;21.10;99.90;;;;;;4990389;28;20208;-69
2023/06/12 05:22:34;;;;;;;7.90;7.10;;;21.20;99.90;;;;;;4991899;28;20287;-70
2023/06/12 05:25:00;;;;;;;11.05;10.05;;;21.20;99.90;;;;;;4991475;28;20200;-69
2023/06/12 05:27:25;;;;;;;9.45;8.50;;;21.10;99.90;;;;;;4991762;28;20243;-70
2023/06/12 05:29:51;;;;;;;9.05;8.15;;;21.10;99.90;;;;;;4991257;28;20264;-69
2023/06/12 05:32:17;;;;;;;8.70;7.97;;;21.10;99.90;;;;;;4991586;28;20185;-69
2023/06/12 05:34:42;;;;;;;7.93;7.18;;;21.10;99.90;;;;;;4991363;28;20169;-69
2023/06/12 05:37:08;;;;;;;8.07;7.45;;;21.30;99.90;;;;;;4991612;28;20204;-69
2023/06/12 05:39:33;;;;;;;12.75;8.50;;;21.70;99.90;;;;;;4991179;28;20208;-69
2023/06/12 05:41:59;;;;;;;7.78;7.07;;;22.10;99.90;;;;;;4991409;28;20200;-69
2023/06/12 05:44:25;;;;;;;7.65;6.72;;;22.40;99.90;;;;;;4991309;28;20224;-69
2023/06/12 05:46:51;;;;;;;7.28;6.43;;;22.90;99.90;;;;;;4991344;28;20181;-69
2023/06/12 05:49:17;;;;;;;8.57;7.00;;;23.50;99.90;;;;;;4991519;28;20193;-70
2023/06/12 05:51:43;;;;;;;6.90;6.20;;;24.00;99.90;;;;;;4994969;28;20220;-69
2023/06/12 05:54:09;;;;;;;8.23;6.60;;;24.30;99.90;;;;;;4995125;28;20169;-69
2023/06/12 05:56:34;;;;;;;6.72;5.88;;;24.60;99.90;;;;;;4994742;28;20240;-70
2023/06/12 05:59:00;;;;;;;7.45;6.75;;;25.00;99.90;;;;;;4995069;28;20205;-69
2023/06/12 06:01:26;;;;;;;10.93;7.03;;;25.40;99.90;;;;;;4994871;28;20256;-69
2023/06/12 06:03:52;;;;;;;6.50;5.90;;;25.70;99.90;;;;;;4994840;28;20199;-69
2023/06/12 06:06:18;;;;;;;8.23;6.50;;;26.10;99.90;;;;;;4994831;28;20761;-69
2023/06/12 06:08:43;;;;;;;7.18;6.57;;;26.40;99.90;;;;;;4994760;28;20184;-69
2023/06/12 06:11:09;;;;;;;9.55;6.65;;;26.70;99.90;;;;;;4993302;28;20173;-69
2023/06/12 06:13:35;;;;;;;8.40;6.40;;;27.00;99.90;;;;;;4993674;28;20189;-69
2023/06/12 06:16:01;;;;;;;8.82;7.32;;;27.10;99.90;;;;;;4994586;28;20208;-69
2023/06/12 06:18:28;;;;;;;10.38;9.68;;;27.10;99.90;;;;;;4994646;28;20177;-70
2023/06/12 06:20:53;;;;;;;8.55;7.85;;;27.00;99.90;;;;;;4994692;28;20324;-69
2023/06/12 06:23:21;;;;;;;8.68;7.30;;;27.00;99.90;;;;;;4994544;28;20287;-69
2023/06/12 06:25:47;;;;;;;8.13;6.72;;;27.00;99.90;;;;;;4995135;28;20212;-70
2023/06/12 06:28:13;;;;;;;8.35;6.80;;;27.00;99.90;;;;;;4994656;28;20165;-68
2023/06/12 06:30:38;;;;;;;8.32;7.30;;;27.20;99.90;;;;;;4994336;28;20684;-69
2023/06/12 06:33:04;;;;;;;7.93;6.28;;;27.40;99.90;;;;;;4994678;28;20179;-69
2023/06/12 06:35:30;;;;;;;8.82;7.15;;;27.50;99.90;;;;;;4994416;28;20527;-69
2023/06/12 06:37:56;;;;;;;6.82;6.13;;;27.80;99.90;;;;;;4993757;28;20548;-69
2023/06/12 06:40:22;;;;;;;7.68;5.95;;;27.90;99.90;;;;;;4993880;28;20203;-69
2023/06/12 06:42:47;;;;;;;6.65;6.15;;;28.00;99.90;;;;;;4994333;28;20685;-69
2023/06/12 06:45:13;;;;;;;8.10;6.80;;;28.10;99.90;;;;;;4994283;28;20185;-70
2023/06/12 06:47:39;;;;;;;7.93;6.72;;;27.90;99.90;;;;;;4994383;28;20196;-70
2023/06/12 06:50:05;;;;;;;18.55;8.40;;;27.50;99.90;;;;;;4994000;28;20271;-69
2023/06/12 06:52:31;;;;;;;5.50;5.00;;;27.10;99.90;;;;;;4994038;28;20188;-69
2023/06/12 06:54:56;;;;;;;6.22;5.32;;;27.00;99.90;;;;;;4993903;28;20192;-69
2023/06/12 06:57:23;;;;;;;9.02;6.22;;;26.60;99.90;;;;;;4993993;28;20176;-69
2023/06/12 06:59:50;;;;;;;6.38;5.85;;;26.50;99.90;;;;;;4993716;28;20173;-70
2023/06/12 07:02:16;;;;;;;6.85;6.25;;;26.70;99.90;;;;;;4992859;28;20224;-69
2023/06/12 07:04:42;;;;;;;7.88;5.63;;;27.00;99.90;;;;;;4993546;28;20646;-69
2023/06/12 07:07:08;;;;;;;6.30;5.70;;;27.20;99.90;;;;;;4993902;28;20645;-70
2023/06/12 07:09:34;;;;;;;7.32;5.65;;;27.50;99.90;;;;;;4993636;28;20173;-69
2023/06/12 07:11:59;;;;;;;6.03;5.53;;;27.80;99.90;;;;;;4993635;28;20168;-69
2023/06/12 07:14:25;;;;;;;7.07;6.00;;;28.10;99.90;;;;;;4993427;28;20271;-69
2023/06/12 07:16:51;;;;;;;7.60;5.97;;;28.60;99.90;;;;;;4993524;28;20300;-69
2023/06/12 07:19:16;;;;;;;8.93;7.57;;;29.00;99.90;;;;;;4993526;28;20173;-70
2023/06/12 07:21:42;;;;;;;7.90;7.18;;;29.00;99.90;;;;;;4992009;28;20251;-69
2023/06/12 07:24:08;;;;;;;6.35;5.85;;;29.10;99.90;;;;;;4993536;28;20200;-70
2023/06/12 07:26:35;;;;;;;6.43;5.75;;;29.40;99.90;;;;;;4993034;28;20623;-70
2023/06/12 07:29:00;;;;;;;6.15;5.70;;;29.90;99.90;;;;;;4993504;28;20173;-70
2023/06/12 07:31:26;;;;;;;6.57;6.05;;;30.00;99.90;;;;;;4993018;28;20216;-69
2023/06/12 07:33:51;;;;;;;6.22;5.72;;;29.90;99.90;;;;;;4993070;28;20177;-69
2023/06/12 07:36:17;;;;;;;5.93;5.43;;;30.00;99.90;;;;;;4993347;28;20196;-69
2023/06/12 07:38:43;;;;;;;7.00;6.40;;;30.10;99.90;;;;;;4992317;28;20176;-69
2023/06/12 07:41:08;;;;;;;6.28;5.68;;;30.20;99.90;;;;;;4992908;28;20574;-70
2023/06/12 07:43:34;;;;;;;8.98;6.07;;;30.20;99.90;;;;;;4992894;28;20576;-70
2023/06/12 07:46:03;;;;;;;5.40;5.00;;;30.40;99.90;;;;;;4992911;28;20189;-70
2023/06/12 07:48:29;;;;;;;7.85;5.20;;;30.70;99.90;;;;;;4992733;28;20176;-69
2023/06/12 07:50:55;;;;;;;5.55;5.10;;;30.80;99.90;;;;;;4992601;28;20204;-69
2023/06/12 07:53:20;;;;;;;6.13;5.35;;;31.10;99.90;;;;;;4992868;28;20708;-70
2023/06/12 07:55:47;;;;;;;6.32;5.10;;;31.40;99.10;;;;;;4992609;28;20283;-70
2023/06/12 07:58:13;;;;;;;6.13;5.47;;;31.50;99.60;;;;;;4992842;28;20199;-69
2023/06/12 08:00:38;;;;;;;6.22;5.72;;;31.30;99.90;;;;;;4992328;28;20177;-70
2023/06/12 08:03:04;;;;;;;6.53;5.95;;;31.60;99.20;;;;;;4992609;28;20608;-69
2023/06/12 08:05:30;;;;;;;6.10;5.55;;;31.30;97.50;;;;;;4992528;28;20185;-69
2023/06/12 08:07:55;;;;;;;6.80;5.97;;;31.20;96.20;;;;;;4992538;28;20220;-70
2023/06/12 08:10:21;;;;;;;5.68;5.18;;;31.30;97.70;;;;;;4992576;28;20638;-70
2023/06/12 08:12:47;;;;;;;5.93;5.32;;;31.60;98.60;;;;;;4992466;28;20646;-69
2023/06/12 08:15:13;;;;;;;6.53;5.90;;;31.50;97.50;;;;;;4992792;28;20272;-70
2023/06/12 08:17:42;;;;;;;6.90;5.18;;;31.40;97.90;;;;;;4992758;28;20173;-69
2023/06/12 08:20:10;;;;;;;5.90;5.43;;;31.50;97.20;;;;;;4992570;28;20662;-70
2023/06/12 08:22:36;;;;;;;5.95;5.45;;;31.80;97.20;;;;;;4991163;28;20217;-69
2023/06/12 08:25:10;;;;;;;6.00;5.40;;;32.00;97.90;;;;;;4992492;28;20769;-69
2023/06/12 08:27:36;;;;;;;6.00;5.50;;;31.90;95.10;;;;;;4992637;28;20180;-70
2023/06/12 08:30:03;;;;;;;6.13;5.47;;;31.50;95.20;;;;;;4992322;28;20169;-70
2023/06/12 08:32:28;;;;;;;6.40;5.70;;;31.30;96.80;;;;;;4992327;28;20172;-70
2023/06/12 08:34:54;;;;;;;6.47;5.80;;;31.30;98.00;;;;;;4992334;28;20243;-70
2023/06/12 08:37:23;;;;;;;6.72;6.03;;;31.20;96.30;;;;;;4992511;28;20659;-70
2023/06/12 08:39:49;;;;;;;5.68;5.18;;;31.40;96.70;;;;;;4992314;28;20181;-70
2023/06/12 08:42:16;;;;;;;5.63;4.95;;;31.60;97.00;;;;;;4992390;28;20193;-70
2023/06/12 08:44:44;;;;;;;6.22;5.60;;;32.00;98.30;;;;;;4992094;28;20542;-69
2023/06/12 08:47:10;;;;;;;6.10;5.55;;;32.00;95.70;;;;;;4992359;28;20535;-70
2023/06/12 08:49:37;;;;;;;5.93;5.32;;;32.30;95.90;;;;;;4992078;28;20181;-70
2023/06/12 08:52:03;;;;;;;6.35;5.75;;;32.60;95.70;;;;;;4992316;28;20179;-69
2023/06/12 08:54:33;;;;;;;6.25;5.75;;;33.00;95.70;;;;;;4992022;28;20172;-70
2023/06/12 08:56:59;;;;;;;6.70;5.85;;;33.00;94.70;;;;;;4992239;28;20260;-69
2023/06/12 08:59:25;;;;;;;6.13;5.63;;;32.90;93.50;;;;;;4992015;28;20181;-69
2023/06/12 09:01:54;;;;;;;6.38;5.75;;;32.80;95.60;;;;;;4991976;28;20592;-69
2023/06/12 09:04:32;;;;;;;5.90;5.43;;;32.80;97.80;;;;;;4990880;28;20175;-69
2023/06/12 09:07:01;;;;;;;6.78;5.80;;;32.70;95.40;;;;;;4992054;28;20204;-70
2023/06/12 09:09:40;;;;;;;6.05;5.55;;;33.00;97.20;;;;;;4991914;28;20256;-70
2023/06/12 09:12:10;;;;;;;6.53;6.00;;;33.20;96.60;;;;;;4992176;28;20177;-70
2023/06/12 09:14:36;;;;;;;6.72;5.75;;;33.60;95.50;;;;;;4991766;28;20179;-70
2023/06/12 09:17:03;;;;;;;5.57;5.07;;;34.00;94.60;;;;;;4992050;28;20172;-70
2023/06/12 09:19:37;;;;;;;6.43;5.28;;;34.40;95.60;;;;;;4991853;28;20177;-70
2023/06/12 09:22:03;;;;;;;5.53;5.03;;;34.60;94.40;;;;;;4991999;28;20239;-70
2023/06/12 09:24:29;;;;;;;5.78;5.28;;;34.70;93.20;;;;;;4992334;28;20535;-69
2023/06/12 09:26:57;;;;;;;5.45;5.05;;;34.80;93.20;;;;;;4995871;28;20173;-70
2023/06/12 09:29:42;;;;;;;5.75;5.30;;;35.00;90.30;;;;;;4995958;28;20180;-70
2023/06/12 09:32:11;;;;;;;6.38;5.88;;;35.20;90.60;;;;;;4995803;28;20223;-70
2023/06/12 09:34:37;;;;;;;5.40;4.90;;;35.20;88.70;;;;;;4995596;28;20235;-69
2023/06/12 09:37:09;;;;;;;5.40;4.97;;;34.80;89.00;;;;;;4995804;28;20173;-70
2023/06/12 09:39:35;;;;;;;5.13;4.53;;;34.60;91.10;;;;;;4994954;28;20183;-69
2023/06/12 09:42:01;;;;;;;5.38;4.97;;;34.70;91.20;;;;;;4995459;28;20252;-70
2023/06/12 09:44:29;;;;;;;5.97;5.45;;;34.60;90.10;;;;;;4995518;28;20567;-69
2023/06/12 09:47:02;;;;;;;5.78;5.30;;;34.60;87.40;;;;;;4995461;28;20204;-69
2023/06/12 09:49:29;;;;;;;5.18;4.78;;;34.50;84.90;;;;;;4995543;28;20563;-70
2023/06/12 09:51:55;;;;;;;4.97;4.57;;;34.40;87.10;;;;;;4995452;28;20165;-70
2023/06/12 09:54:22;;;;;;;4.95;4.45;;;34.30;84.10;;;;;;4995449;28;20219;-69
2023/06/12 09:56:53;;;;;;;6.43;5.00;;;34.00;84.10;;;;;;4995153;28;20216;-70
2023/06/12 09:59:21;;;;;;;6.75;6.25;;;33.50;84.60;;;;;;4995231;28;20534;-69
2023/06/12 10:01:58;;;;;;;7.70;7.10;;;33.20;85.40;;;;;;4994983;28;20196;-70
2023/06/12 10:04:48;;;;;;;7.15;6.55;;;33.20;81.60;;;;;;4995414;28;20475;-69
2023/06/12 10:07:26;;;;;;;5.72;5.07;;;33.10;84.50;;;;;;4995300;28;20643;-69
2023/06/12 10:09:53;;;;;;;5.00;4.60;;;33.10;86.60;;;;;;4994848;28;20219;-69
2023/06/12 10:12:19;;;;;;;5.80;5.30;;;33.50;85.60;;;;;;4995177;28;20685;-70
2023/06/12 10:14:45;;;;;;;5.72;5.22;;;33.80;83.90;;;;;;4994684;28;20851;-70
2023/06/12 10:17:11;;;;;;;5.68;5.18;;;33.70;85.90;;;;;;4995027;28;20693;-70
2023/06/12 10:19:40;;;;;;;5.40;4.80;;;33.80;85.10;;;;;;4993367;28;20181;-69
2023/06/12 10:22:06;;;;;;;7.45;5.00;;;33.70;83.00;;;;;;4994961;28;20259;-69
2023/06/12 10:24:33;;;;;;;5.43;4.70;;;33.70;81.90;;;;;;4994515;28;20173;-69
2023/06/12 10:27:00;;;;;;;9.63;4.82;;;33.90;84.10;;;;;;4994859;28;20172;-70
2023/06/12 10:29:31;;;;;;;5.55;4.78;;;34.10;86.60;;;;;;4994590;28;20207;-69
2023/06/12 10:32:07;;;;;;;5.43;4.50;;;34.50;83.50;;;;;;4994654;28;20534;-69
2023/06/12 10:34:34;;;;;;;6.15;5.35;;;34.70;80.00;;;;;;4994310;28;20176;-69
2023/06/12 10:37:22;;;;;;;5.43;5.03;;;34.70;79.10;;;;;;4994547;28;20169;-69
2023/06/12 10:40:05;;;;;;;5.20;4.80;;;34.90;80.40;;;;;;4993876;28;20200;-69
2023/06/12 10:42:53;;;;;;;5.40;5.00;;;34.80;80.00;;;;;;4994496;28;20224;-69
2023/06/12 10:45:27;;;;;;;5.43;4.97;;;35.00;78.60;;;;;;4994609;28;20188;-69
2023/06/12 10:48:01;;;;;;;5.18;4.78;;;34.70;77.30;;;;;;4994534;28;20256;-69
2023/06/12 10:50:27;;;;;;;5.47;4.93;;;34.70;78.90;;;;;;4994396;28;20168;-70
2023/06/12 10:52:54;;;;;;;5.47;4.75;;;34.80;82.10;;;;;;4994274;28;20172;-69
2023/06/12 10:55:31;;;;;;;5.05;4.55;;;34.90;75.90;;;;;;4994333;28;20287;-70
2023/06/12 10:57:59;;;;;;;5.32;4.93;;;35.00;77.90;;;;;;4994461;28;20223;-70
2023/06/12 11:00:33;;;;;;;6.15;5.55;;;35.40;80.10;;;;;;4994042;28;20169;-70
2023/06/12 11:03:29;;;;;;;7.22;6.72;;;35.80;77.10;;;;;;4994212;28;20570;-69
2023/06/12 11:06:01;;;;;;;6.85;6.35;;;35.80;71.80;;;;;;4993989;28;20185;-69
2023/06/12 11:08:28;;;;;;;5.93;5.43;;;35.60;72.20;;;;;;4994191;28;20174;-69
2023/06/12 11:10:54;;;;;;;6.35;5.85;;;35.70;73.40;;;;;;4993811;28;20733;-70
2023/06/12 11:13:26;;;;;;;6.50;6.07;;;35.80;77.20;;;;;;4994068;28;20268;-69
2023/06/12 11:15:53;;;;;;;7.47;6.88;;;36.20;74.00;;;;;;4994022;28;20196;-69
2023/06/12 11:18:19;;;;;;;5.28;4.88;;;36.40;72.80;;;;;;4993985;28;20181;-69
2023/06/12 11:20:56;;;;;;;6.00;5.50;;;36.40;70.90;;;;;;4993695;28;20177;-69
2023/06/12 11:23:26;;;;;;;6.63;6.03;;;36.20;71.60;;;;;;4993995;28;20223;-69
2023/06/12 11:25:53;;;;;;;6.90;6.43;;;36.20;71.00;;;;;;4993485;28;20243;-69
2023/06/12 11:28:20;;;;;;;5.47;5.05;;;36.40;73.70;;;;;;4992715;28;20669;-69
2023/06/12 11:30:56;;;;;;;5.78;5.38;;;36.60;69.90;;;;;;4993226;28;20204;-70
2023/06/12 11:33:22;;;;;;;5.57;5.18;;;36.60;70.70;;;;;;4993745;28;20235;-69
2023/06/12 11:35:57;;;;;;;6.60;5.20;;;36.90;74.60;;;;;;4993339;28;20192;-70
2023/06/12 11:38:22;;;;;;;5.82;5.40;;;36.90;72.50;;;;;;4993636;28;20180;-70
2023/06/12 11:40:50;;;;;;;6.72;6.15;;;36.60;67.70;;;;;;4993066;28;20267;-70
2023/06/12 11:43:20;;;;;;;7.47;6.93;;;36.00;73.90;;;;;;4993400;28;20287;-70
2023/06/12 11:45:47;;;;;;;7.25;6.50;;;35.80;70.70;;;;;;4993154;28;20196;-69
2023/06/12 11:48:16;;;;;;;8.15;7.43;;;35.80;71.40;;;;;;4992817;28;20165;-69
2023/06/12 11:50:49;;;;;;;6.63;5.85;;;35.50;70.60;;;;;;4992814;28;20223;-69
2023/06/12 11:53:17;;;;;;;6.05;5.50;;;35.30;69.10;;;;;;4993386;28;20181;-70
2023/06/12 11:55:57;;;;;;;6.22;5.72;;;35.60;74.50;;;;;;4992944;28;20242;-69
2023/06/12 11:58:37;;;;;;;5.82;5.32;;;36.30;71.60;;;;;;4993423;28;20644;-70
2023/06/12 12:01:22;;;;;;;6.32;5.85;;;36.50;70.30;;;;;;4992846;28;20187;-70
2023/06/12 12:03:49;;;;;;;5.78;5.30;;;36.30;74.10;;;;;;4992937;28;20196;-70
2023/06/12 12:06:15;;;;;;;5.00;4.60;;;36.80;68.50;;;;;;4992233;28;20563;-70
2023/06/12 12:08:42;;;;;;;5.05;4.65;;;37.20;69.20;;;;;;4993461;28;20204;-70
2023/06/12 12:11:35;;;;;;;5.82;4.55;;;37.80;66.90;;;;;;4992924;28;20168;-70
2023/06/12 12:14:03;;;;;;;5.72;5.32;;;38.00;66.50;;;;;;4992595;28;20192;-70
2023/06/12 12:16:36;;;;;;;5.13;4.75;;;38.20;69.10;;;;;;4993034;28;20196;-70
2023/06/12 12:19:19;;;;;;;5.72;5.22;;;38.20;64.10;;;;;;4992914;28;20543;-70
2023/06/12 12:21:45;;;;;;;5.50;4.90;;;38.20;64.20;;;;;;4992760;28;20191;-70
2023/06/12 12:24:12;;;;;;;7.25;5.00;;;38.00;63.70;;;;;;4992870;28;20197;-70
2023/06/12 12:26:41;;;;;;;5.60;5.20;;;37.50;65.20;;;;;;5017299;23;20231;-86
2023/06/12 12:29:08;;;;;;;7.30;5.78;;;36.60;62.10;;;;;;5014861;28;20258;-86
2023/06/12 12:31:34;;;;;;;6.10;5.60;;;35.40;63.60;;;;;;5016891;28;20175;-86
2023/06/12 12:34:00;;;;;;;5.00;4.60;;;34.70;68.60;;;;;;5001421;28;20184;-85
2023/06/12 12:36:27;;;;;;;8.18;5.43;;;34.40;68.00;;;;;;4999608;28;20263;-85
2023/06/12 12:38:53;;;;;;;6.72;6.25;;;34.90;68.30;;;;;;4998444;28;20222;-85
2023/06/12 12:41:19;;;;;;;8.80;8.18;;;35.40;67.80;;;;;;5024368;28;20196;-86
2023/06/12 12:43:44;;;;;;;6.82;6.32;;;36.20;67.50;;;;;;5020393;28;20228;-87
2023/06/12 12:46:10;;;;;;;5.57;5.05;;;36.80;72.40;;;;;;5037925;28;20200;-87
2023/06/12 12:48:38;;;;;;;5.25;4.72;;;37.40;66.80;;;;;;5020569;28;20188;-88